createdAt,value
2018-03-01T00:02:18.591Z,32.70
2018-03-01T00:04:48.216Z,32.60
2018-03-01T00:07:15.825Z,32.60
2018-03-01T00:09:44.656Z,32.70
2018-03-01T00:12:12.660Z,33.00
2018-03-01T00:14:49.564Z,33.10
2018-03-01T00:17:18.246Z,33.20
2018-03-01T00:19:49.374Z,33.20
2018-03-01T00:22:28.712Z,33.20
2018-03-01T00:24:57.278Z,33.20
2018-03-01T00:27:27.775Z,33.20
2018-03-01T00:30:00.309Z,33.30
2018-03-01T00:32:28.635Z,33.40
2018-03-01T00:34:57.012Z,33.50
2018-03-01T00:37:31.847Z,33.60
2018-03-01T00:40:00.965Z,33.80
2018-03-01T00:42:31.631Z,33.60
2018-03-01T00:44:59.585Z,33.60
2018-03-01T00:47:28.415Z,33.70
2018-03-01T00:49:56.283Z,33.80
2018-03-01T00:52:25.600Z,33.60
2018-03-01T00:54:54.125Z,33.60
2018-03-01T00:57:26.037Z,33.60
2018-03-01T00:59:53.870Z,33.70
2018-03-01T01:02:22.074Z,33.70
2018-03-01T01:04:51.601Z,33.80
2018-03-01T01:07:25.447Z,33.80
2018-03-01T01:09:54.291Z,33.90
2018-03-01T01:12:23.742Z,33.80
2018-03-01T01:14:52.597Z,33.90
2018-03-01T01:17:23.606Z,34.10
2018-03-01T01:19:51.854Z,33.90
2018-03-01T01:22:20.286Z,34.00
2018-03-01T01:24:56.083Z,34.00
2018-03-01T01:27:24.042Z,34.10
2018-03-01T01:29:54.095Z,34.20
2018-03-01T01:32:22.964Z,34.20
2018-03-01T01:34:52.099Z,34.10
2018-03-01T01:37:21.771Z,34.30
2018-03-01T01:39:51.291Z,34.30
2018-03-01T01:42:19.243Z,34.20
2018-03-01T01:44:49.585Z,34.30
2018-03-01T01:47:18.318Z,34.30
2018-03-01T01:49:50.164Z,34.50
2018-03-01T01:52:18.020Z,34.60
2018-03-01T01:54:46.807Z,34.70
2018-03-01T01:57:17.110Z,34.80
2018-03-01T01:59:46.105Z,35.40
2018-03-01T02:02:13.742Z,34.70
2018-03-01T02:04:41.355Z,34.70
2018-03-01T02:07:08.971Z,34.80
2018-03-01T02:09:36.584Z,34.70
2018-03-01T02:12:04.185Z,34.60
2018-03-01T02:14:31.805Z,34.80
2018-03-01T02:16:59.439Z,34.80
2018-03-01T02:19:27.087Z,34.80
2018-03-01T02:21:55.455Z,34.90
2018-03-01T02:24:24.058Z,35.00
2018-03-01T02:26:51.945Z,34.80
2018-03-01T02:29:19.553Z,34.90
2018-03-01T02:31:47.162Z,34.70
2018-03-01T02:34:14.766Z,34.80
2018-03-01T02:36:42.374Z,35.00
2018-03-01T02:39:10.763Z,34.80
2018-03-01T02:41:38.376Z,34.80
2018-03-01T02:44:05.964Z,34.80
2018-03-01T02:46:34.356Z,34.80
2018-03-01T02:49:02.719Z,34.70
2018-03-01T02:51:30.316Z,34.70
2018-03-01T02:53:57.919Z,34.80
2018-03-01T02:56:25.551Z,34.80
2018-03-01T02:58:53.156Z,34.80
2018-03-01T03:01:20.796Z,35.40
2018-03-01T03:03:48.404Z,35.00
2018-03-01T03:06:16.778Z,35.50
2018-03-01T03:08:45.158Z,35.40
2018-03-01T03:11:13.532Z,35.70
2018-03-01T03:13:41.127Z,35.50
2018-03-01T03:16:08.763Z,36.20
2018-03-01T03:18:37.127Z,35.50
2018-03-01T03:21:04.761Z,35.50
2018-03-01T03:23:32.377Z,35.20
2018-03-01T03:26:00.751Z,35.10
2018-03-01T03:28:29.121Z,35.30
2018-03-01T03:30:57.251Z,35.20
2018-03-01T03:33:24.854Z,35.30
2018-03-01T03:35:52.499Z,35.40
2018-03-01T03:38:20.132Z,35.20
2018-03-01T03:40:47.750Z,35.90
2018-03-01T03:43:15.347Z,35.20
2018-03-01T03:45:42.992Z,35.20
2018-03-01T03:48:10.596Z,35.20
2018-03-01T03:50:38.236Z,35.20
2018-03-01T03:53:05.865Z,35.10
2018-03-01T03:55:34.274Z,35.30
2018-03-01T03:58:01.910Z,35.20
2018-03-01T04:00:29.516Z,35.20
2018-03-01T04:02:57.138Z,35.30
2018-03-01T04:05:24.935Z,35.90
2018-03-01T04:07:52.869Z,35.90
2018-03-01T04:10:20.485Z,35.50
2018-03-01T04:12:48.095Z,35.50
2018-03-01T04:15:15.749Z,35.70
2018-03-01T04:17:43.597Z,35.60
2018-03-01T04:20:11.226Z,35.80
2018-03-01T04:22:38.851Z,36.70
2018-03-01T04:25:06.502Z,37.00
2018-03-01T04:27:34.204Z,37.50
2018-03-01T04:30:01.838Z,36.10
2018-03-01T04:32:29.460Z,31.30
2018-03-01T04:34:57.064Z,30.00
2018-03-01T04:37:25.421Z,27.20
2018-03-01T04:39:53.079Z,27.20
2018-03-01T04:42:20.679Z,28.60
2018-03-01T04:44:48.299Z,26.10
2018-03-01T04:47:16.284Z,25.30
2018-03-01T04:49:45.085Z,26.60
2018-03-01T04:52:15.312Z,28.10
2018-03-01T04:54:43.714Z,26.10
2018-03-01T04:57:12.077Z,25.40
2018-03-01T04:59:41.624Z,25.30
2018-03-01T05:02:10.420Z,25.30
2018-03-01T05:04:39.251Z,27.60
2018-03-01T05:07:12.723Z,26.20
2018-03-01T05:09:40.373Z,26.60
2018-03-01T05:12:08.317Z,26.50
2018-03-01T05:14:35.945Z,27.90
2018-03-01T05:17:05.430Z,28.00
2018-03-01T05:19:33.855Z,25.80
2018-03-01T05:22:02.099Z,26.40
2018-03-01T05:24:32.424Z,27.70
2018-03-01T05:27:03.323Z,27.40
2018-03-01T05:29:31.684Z,25.10
2018-03-01T05:32:00.517Z,27.40
2018-03-01T05:34:29.062Z,27.40
2018-03-01T05:36:57.330Z,27.40
2018-03-01T05:39:30.573Z,27.20
2018-03-01T05:42:00.489Z,27.10
2018-03-01T05:44:28.093Z,27.60
2018-03-01T05:46:57.556Z,27.60
2018-03-01T05:49:29.729Z,25.90
2018-03-01T05:52:00.522Z,26.70
2018-03-01T05:54:28.496Z,27.30
2018-03-01T05:56:57.511Z,27.30
2018-03-01T05:59:25.532Z,27.30
2018-03-01T06:01:56.135Z,27.40
2018-03-01T06:04:25.775Z,27.20
2018-03-01T06:06:54.548Z,24.80
2018-03-01T06:09:28.952Z,25.40
2018-03-01T06:12:00.630Z,27.00
2018-03-01T06:14:29.581Z,27.10
2018-03-01T06:16:57.785Z,27.40
2018-03-01T06:19:27.548Z,26.00
2018-03-01T06:21:56.737Z,27.00
2018-03-01T06:24:26.507Z,24.90
2018-03-01T06:26:57.366Z,24.80
2018-03-01T06:29:29.354Z,25.30
2018-03-01T06:31:56.985Z,25.70
2018-03-01T06:34:24.817Z,26.50
2018-03-01T06:36:53.303Z,25.10
2018-03-01T06:39:21.915Z,26.10
2018-03-01T06:41:56.221Z,26.90
2018-03-01T06:44:25.840Z,26.90
2018-03-01T06:46:55.333Z,26.70
2018-03-01T06:49:25.165Z,26.70
2018-03-01T06:51:54.136Z,25.20
2018-03-01T06:54:29.688Z,25.40
2018-03-01T06:56:58.613Z,26.00
2018-03-01T06:59:26.359Z,25.10
2018-03-01T07:01:55.224Z,26.80
2018-03-01T07:04:25.226Z,26.60
2018-03-01T07:06:54.285Z,27.00
2018-03-01T07:09:21.899Z,26.50
2018-03-01T07:11:49.803Z,26.40
2018-03-01T07:14:19.145Z,25.60
2018-03-01T07:16:53.671Z,25.10
2018-03-01T07:19:26.030Z,25.80
2018-03-01T07:21:54.688Z,24.90
2018-03-01T07:24:28.026Z,26.00
2018-03-01T07:26:57.824Z,26.00
2018-03-01T07:29:30.026Z,26.50
2018-03-01T07:31:58.656Z,26.30
2018-03-01T07:34:26.434Z,26.60
2018-03-01T07:36:54.186Z,26.10
2018-03-01T07:39:22.016Z,26.10
2018-03-01T07:42:02.718Z,26.10
2018-03-01T07:44:30.577Z,26.10
2018-03-01T07:46:59.108Z,24.50
2018-03-01T07:49:31.475Z,25.50
2018-03-01T07:51:59.085Z,25.30
2018-03-01T07:54:28.427Z,24.60
2018-03-01T07:56:57.038Z,24.80
2018-03-01T07:59:29.064Z,25.40
2018-03-01T08:01:57.936Z,23.30
2018-03-01T08:04:29.917Z,24.80
2018-03-01T08:07:00.268Z,24.40
2018-03-01T08:09:29.103Z,23.70
2018-03-01T08:12:01.398Z,23.50
2018-03-01T08:14:32.176Z,24.10
2018-03-01T08:16:59.778Z,24.50
2018-03-01T08:19:27.884Z,23.40
2018-03-01T08:21:55.746Z,24.10
2018-03-01T08:24:23.768Z,24.10
2018-03-01T08:26:52.183Z,24.80
2018-03-01T08:29:20.636Z,24.10
2018-03-01T08:31:50.118Z,23.90
2018-03-01T08:34:20.235Z,22.90
2018-03-01T08:36:48.698Z,22.70
2018-03-01T08:39:16.685Z,23.00
2018-03-01T08:41:44.763Z,22.60
2018-03-01T08:44:14.338Z,22.70
2018-03-01T08:46:42.677Z,22.90
2018-03-01T08:49:14.869Z,22.00
2018-03-01T08:51:43.712Z,22.50
2018-03-01T08:54:11.935Z,22.60
2018-03-01T08:56:44.321Z,22.70
2018-03-01T08:59:12.659Z,22.00
2018-03-01T09:01:42.947Z,22.90
2018-03-01T09:04:10.731Z,22.10
2018-03-01T09:06:38.323Z,22.50
2018-03-01T09:09:08.500Z,22.50
2018-03-01T09:11:38.083Z,22.50
2018-03-01T09:14:06.525Z,23.10
2018-03-01T09:16:36.529Z,23.70
2018-03-01T09:19:04.612Z,23.00
2018-03-01T09:21:33.388Z,22.70
2018-03-01T09:24:01.923Z,23.00
2018-03-01T09:26:29.579Z,22.30
2018-03-01T09:28:59.276Z,22.70
2018-03-01T09:31:27.295Z,22.70
2018-03-01T09:33:55.897Z,22.70
2018-03-01T09:36:36.878Z,22.50
2018-03-01T09:39:05.635Z,22.10
2018-03-01T09:41:35.011Z,22.50
2018-03-01T09:44:04.969Z,21.30
2018-03-01T09:46:33.326Z,21.50
2018-03-01T09:49:05.040Z,22.30
2018-03-01T09:51:35.883Z,21.50
2018-03-01T09:54:03.876Z,22.10
2018-03-01T09:56:35.211Z,22.20
2018-03-01T09:59:03.464Z,22.20
2018-03-01T10:01:32.268Z,21.90
2018-03-01T10:04:01.391Z,21.80
2018-03-01T10:06:30.762Z,22.30
2018-03-01T10:09:03.344Z,22.20
2018-03-01T10:11:32.232Z,22.40
2018-03-01T10:14:12.946Z,22.60
2018-03-01T10:16:40.667Z,22.20
2018-03-01T10:19:11.998Z,22.10
2018-03-01T10:21:39.613Z,22.30
2018-03-01T10:24:09.027Z,22.60
2018-03-01T10:26:46.054Z,22.40
2018-03-01T10:29:15.962Z,21.80
2018-03-01T10:31:48.159Z,22.40
2018-03-01T10:34:18.179Z,22.20
2018-03-01T10:36:53.453Z,22.30
2018-03-01T10:39:21.709Z,22.00
2018-03-01T10:41:54.866Z,22.10
2018-03-01T10:44:22.865Z,22.00
2018-03-01T10:46:58.160Z,22.10
2018-03-01T10:49:27.244Z,21.90
2018-03-01T10:51:55.620Z,21.60
2018-03-01T10:54:36.762Z,21.50
2018-03-01T10:57:05.591Z,21.60
2018-03-01T10:59:40.439Z,21.80
2018-03-01T11:02:09.998Z,21.80
2018-03-01T11:04:39.540Z,21.70
2018-03-01T11:07:09.313Z,21.50
2018-03-01T11:09:37.233Z,21.50
2018-03-01T11:12:05.158Z,21.30
2018-03-01T11:14:35.657Z,21.60
2018-03-01T11:17:05.539Z,21.80
2018-03-01T11:19:37.523Z,21.80
2018-03-01T11:22:06.704Z,21.70
2018-03-01T11:24:41.470Z,21.60
2018-03-01T11:27:18.777Z,21.80
2018-03-01T11:29:51.350Z,21.60
2018-03-01T11:32:19.631Z,21.80
2018-03-01T11:34:47.752Z,21.90
2018-03-01T11:37:16.884Z,21.90
2018-03-01T11:39:50.683Z,21.70
2018-03-01T11:42:23.136Z,21.90
2018-03-01T11:44:51.497Z,22.00
2018-03-01T11:47:26.340Z,21.80
2018-03-01T11:49:56.417Z,21.40
2018-03-01T11:52:26.704Z,21.40
2018-03-01T11:54:54.900Z,21.00
2018-03-01T11:57:26.594Z,21.70
2018-03-01T12:00:00.173Z,21.80
2018-03-01T12:02:29.267Z,21.60
2018-03-01T12:04:57.611Z,22.40
2018-03-01T12:07:27.528Z,21.90
2018-03-01T12:10:00.517Z,21.90
2018-03-01T12:12:34.776Z,21.90
2018-03-01T12:15:03.755Z,22.00
2018-03-01T12:17:35.587Z,22.00
2018-03-01T12:20:04.062Z,22.70
2018-03-01T12:22:36.281Z,22.40
2018-03-01T12:25:05.126Z,22.40
2018-03-01T12:27:35.884Z,22.90
2018-03-01T12:30:08.959Z,22.80
2018-03-01T12:32:36.900Z,22.80
2018-03-01T12:35:12.303Z,22.80
2018-03-01T12:37:41.024Z,22.80
2018-03-01T12:40:13.200Z,22.60
2018-03-01T12:42:41.142Z,22.30
2018-03-01T12:45:12.166Z,22.50
2018-03-01T12:47:42.810Z,22.90
2018-03-01T12:50:13.827Z,22.80
2018-03-01T12:52:42.526Z,22.40
2018-03-01T12:55:16.102Z,22.30
2018-03-01T12:57:45.598Z,22.10
2018-03-01T13:00:13.778Z,22.50
2018-03-01T13:02:45.151Z,22.70
2018-03-01T13:05:14.657Z,22.80
2018-03-01T13:07:42.718Z,23.60
2018-03-01T13:10:16.010Z,23.30
2018-03-01T13:12:45.540Z,23.10
2018-03-01T13:15:13.353Z,23.10
2018-03-01T13:17:41.497Z,23.40
2018-03-01T13:20:21.691Z,23.40
2018-03-01T13:22:55.129Z,22.80
2018-03-01T13:25:25.040Z,23.00
2018-03-01T13:27:53.610Z,22.50
2018-03-01T13:30:27.662Z,23.10
2018-03-01T13:33:02.175Z,22.70
2018-03-01T13:35:30.271Z,22.80
2018-03-01T13:37:59.300Z,22.70
2018-03-01T13:40:28.956Z,22.20
2018-03-01T13:43:09.554Z,22.60
2018-03-01T13:45:41.672Z,22.60
2018-03-01T13:48:09.704Z,22.50
2018-03-01T13:50:39.010Z,22.50
2018-03-01T13:53:11.971Z,22.70
2018-03-01T13:55:40.661Z,22.50
2018-03-01T13:58:10.739Z,22.60
2018-03-01T14:00:39.623Z,22.60
2018-03-01T14:03:13.165Z,22.80
2018-03-01T14:05:45.724Z,22.60
2018-03-01T14:08:21.420Z,22.50
2018-03-01T14:10:51.193Z,22.50
2018-03-01T14:16:26.407Z,22.30
2018-03-01T14:18:56.028Z,22.30
2018-03-01T14:21:26.616Z,22.50
2018-03-01T14:24:03.364Z,22.30
2018-03-01T14:26:34.748Z,22.30
2018-03-01T14:32:05.908Z,22.40
2018-03-01T14:34:35.045Z,22.50
2018-03-01T14:37:04.041Z,22.90
2018-03-01T14:39:31.876Z,22.30
2018-03-01T14:42:03.916Z,22.00
2018-03-01T14:44:32.650Z,22.00
2018-03-01T14:47:00.874Z,22.00
2018-03-01T14:49:29.665Z,22.00
2018-03-01T14:52:00.116Z,22.00
2018-03-01T14:54:29.183Z,22.00
2018-03-01T14:56:58.900Z,22.00
2018-03-01T14:59:27.840Z,22.00
2018-03-01T15:01:55.848Z,22.00
2018-03-01T15:04:24.870Z,21.90
2018-03-01T15:06:53.932Z,21.90
2018-03-01T15:09:21.774Z,21.90
2018-03-01T15:11:52.432Z,21.90
2018-03-01T15:14:25.874Z,21.80
2018-03-01T15:16:53.654Z,21.90
2018-03-01T15:19:22.548Z,22.10
2018-03-01T15:21:52.393Z,22.30
2018-03-01T15:24:21.369Z,22.50
2018-03-01T15:26:50.705Z,22.00
2018-03-01T15:29:21.203Z,22.50
2018-03-01T15:31:49.372Z,21.90
2018-03-01T15:34:21.271Z,22.50
2018-03-01T15:36:57.119Z,22.60
2018-03-01T15:39:25.171Z,22.60
2018-03-01T15:41:52.797Z,22.10
2018-03-01T15:44:20.425Z,22.00
2018-03-01T15:46:48.079Z,22.30
2018-03-01T15:49:15.729Z,22.30
2018-03-01T15:51:43.344Z,22.60
2018-03-01T15:54:18.985Z,22.30
2018-03-01T15:56:46.567Z,22.10
2018-03-01T15:59:14.170Z,22.60
2018-03-01T16:01:41.816Z,22.10
2018-03-01T16:04:09.679Z,23.00
2018-03-01T16:06:37.352Z,22.30
2018-03-01T16:09:05.009Z,22.20
2018-03-01T16:11:32.633Z,22.20
2018-03-01T16:14:01.016Z,22.80
2018-03-01T16:16:29.600Z,22.10
2018-03-01T16:18:57.208Z,22.10
2018-03-01T16:21:31.026Z,22.50
2018-03-01T16:23:59.111Z,22.30
2018-03-01T16:26:27.976Z,22.10
2018-03-01T16:28:56.266Z,22.50
2018-03-01T16:31:24.011Z,22.80
2018-03-01T16:33:55.812Z,22.30
2018-03-01T16:36:24.134Z,22.40
2018-03-01T16:38:55.604Z,22.60
2018-03-01T16:41:26.691Z,22.60
2018-03-01T16:43:54.674Z,22.30
2018-03-01T16:46:23.432Z,22.60
2018-03-01T16:48:55.836Z,22.80
2018-03-01T16:51:28.894Z,22.70
2018-03-01T16:53:57.696Z,22.90
2018-03-01T16:56:25.817Z,22.70
2018-03-01T16:58:54.590Z,22.60
2018-03-01T17:01:25.505Z,23.40
2018-03-01T17:03:55.073Z,23.40
2018-03-01T17:06:23.337Z,23.40
2018-03-01T17:08:56.559Z,24.20
2018-03-01T17:11:24.893Z,23.40
2018-03-01T17:13:54.497Z,23.30
2018-03-01T17:16:24.304Z,24.20
2018-03-01T17:18:52.294Z,24.10
2018-03-01T17:21:21.878Z,24.00
2018-03-01T17:23:52.614Z,23.80
2018-03-01T17:26:20.989Z,23.30
2018-03-01T17:28:49.771Z,23.40
2018-03-01T17:31:19.663Z,23.60
2018-03-01T17:33:47.691Z,23.70
2018-03-01T17:36:15.783Z,24.20
2018-03-01T17:38:46.077Z,23.50
2018-03-01T17:41:19.052Z,24.20
2018-03-01T17:43:49.314Z,23.80
2018-03-01T17:46:18.526Z,23.80
2018-03-01T17:48:50.600Z,24.70
2018-03-01T17:51:23.178Z,24.30
2018-03-01T17:53:51.489Z,24.10
2018-03-01T17:56:22.441Z,23.60
2018-03-01T17:58:51.594Z,23.20
2018-03-01T18:01:21.101Z,23.10
2018-03-01T18:03:57.367Z,23.10
2018-03-01T18:06:28.101Z,23.50
2018-03-01T18:08:56.999Z,23.30
2018-03-01T18:11:30.583Z,22.80
2018-03-01T18:14:04.802Z,23.70
2018-03-01T18:16:34.327Z,23.00
2018-03-01T18:19:04.887Z,22.90
2018-03-01T18:21:35.493Z,23.20
2018-03-01T18:24:03.087Z,22.80
2018-03-01T18:26:31.907Z,22.90
2018-03-01T18:29:01.642Z,23.40
2018-03-01T18:31:31.283Z,23.40
2018-03-01T18:34:03.749Z,22.70
2018-03-01T18:36:31.839Z,22.70
2018-03-01T18:39:00.090Z,23.70
2018-03-01T18:41:28.835Z,23.10
2018-03-01T18:43:58.218Z,23.50
2018-03-01T18:46:29.835Z,22.90
2018-03-01T18:49:00.069Z,23.10
2018-03-01T18:51:29.779Z,22.80
2018-03-01T18:53:59.319Z,23.00
2018-03-01T18:56:26.940Z,22.90
2018-03-01T18:58:56.206Z,22.90
2018-03-01T19:01:30.334Z,22.90
2018-03-01T19:03:58.194Z,22.80
2018-03-01T19:06:26.162Z,23.50
2018-03-01T19:08:54.788Z,23.20
2018-03-01T19:11:23.171Z,23.10
2018-03-01T19:13:54.274Z,24.00
2018-03-01T19:16:31.260Z,23.90
2018-03-01T19:19:01.443Z,23.60
2018-03-01T19:21:34.523Z,23.80
2018-03-01T19:24:02.151Z,24.70
2018-03-01T19:26:35.879Z,24.80
2018-03-01T19:29:03.763Z,24.80
2018-03-01T19:31:37.956Z,25.00
2018-03-01T19:34:09.066Z,24.90
2018-03-01T19:36:38.087Z,25.00
2018-03-01T19:39:09.284Z,25.00
2018-03-01T19:41:38.819Z,25.20
2018-03-01T19:44:18.491Z,25.40
2018-03-01T19:46:48.077Z,25.40
2018-03-01T19:49:20.328Z,25.60
2018-03-01T19:51:48.628Z,25.70
2018-03-01T19:54:20.760Z,25.80
2018-03-01T19:56:50.022Z,25.90
2018-03-01T19:59:18.285Z,25.90
2018-03-01T20:01:47.044Z,26.10
2018-03-01T20:04:16.030Z,26.20
2018-03-01T20:06:44.570Z,26.30
2018-03-01T20:09:12.552Z,26.40
2018-03-01T20:11:42.107Z,26.40
2018-03-01T20:14:11.871Z,26.60
2018-03-01T20:16:44.567Z,26.60
2018-03-01T20:19:13.484Z,26.70
2018-03-01T20:21:42.279Z,26.80
2018-03-01T20:24:10.665Z,26.90
2018-03-01T20:26:39.533Z,26.90
2018-03-01T20:29:09.079Z,27.00
2018-03-01T20:31:36.682Z,27.20
2018-03-01T20:34:11.950Z,27.20
2018-03-01T20:36:39.914Z,27.30
2018-03-01T20:39:17.390Z,27.80
2018-03-01T20:41:45.717Z,27.40
2018-03-01T20:44:19.105Z,27.40
2018-03-01T20:46:47.617Z,27.40
2018-03-01T20:49:14.822Z,27.40
2018-03-01T20:51:42.914Z,27.50
2018-03-01T20:54:10.556Z,27.40
2018-03-01T20:56:39.211Z,27.50
2018-03-01T20:59:07.706Z,27.50
2018-03-01T21:01:36.181Z,27.50
2018-03-01T21:04:09.657Z,27.50
2018-03-01T21:06:37.662Z,27.50
2018-03-01T21:09:12.251Z,27.50
2018-03-01T21:11:41.171Z,27.50
2018-03-01T21:14:08.327Z,27.80
2018-03-01T21:16:36.699Z,27.90
2018-03-01T21:19:03.884Z,28.40
2018-03-01T21:21:34.099Z,28.30
2018-03-01T21:24:03.285Z,28.40
2018-03-01T21:26:30.609Z,28.60
2018-03-01T21:28:58.846Z,28.60
2018-03-01T21:31:28.066Z,28.80
2018-03-01T21:34:01.242Z,28.90
2018-03-01T21:36:28.396Z,29.00
2018-03-01T21:39:01.302Z,29.10
2018-03-01T21:41:31.674Z,29.10
2018-03-01T21:43:59.512Z,29.60
2018-03-01T21:46:29.680Z,30.00
2018-03-01T21:48:58.648Z,29.40
2018-03-01T21:51:28.205Z,29.60
2018-03-01T21:53:55.997Z,29.70
2018-03-01T21:56:24.697Z,29.90
2018-03-01T21:58:52.541Z,30.00
2018-03-01T22:01:22.230Z,30.00
2018-03-01T22:03:51.268Z,29.80
2018-03-01T22:06:22.648Z,30.10
2018-03-01T22:08:50.304Z,30.20
2018-03-01T22:11:17.454Z,30.10
2018-03-01T22:13:45.088Z,30.10
2018-03-01T22:16:20.746Z,30.80
2018-03-01T22:18:49.148Z,30.10
2018-03-01T22:21:18.450Z,30.10
2018-03-01T22:23:47.952Z,30.10
2018-03-01T22:26:15.570Z,30.10
2018-03-01T22:28:45.556Z,30.80
2018-03-01T22:31:15.349Z,30.10
2018-03-01T22:33:44.555Z,30.10
2018-03-01T22:36:11.729Z,30.30
2018-03-01T22:38:40.939Z,30.30
2018-03-01T22:41:12.792Z,30.10
2018-03-01T22:43:39.960Z,30.40
2018-03-01T22:46:08.487Z,30.30
2018-03-01T22:48:38.061Z,30.30
2018-03-01T22:51:05.268Z,30.30
2018-03-01T22:53:32.485Z,30.20
2018-03-01T22:56:15.874Z,30.30
2018-03-01T22:58:44.773Z,30.30
2018-03-01T23:01:13.326Z,30.70
2018-03-01T23:03:41.718Z,30.80
2018-03-01T23:08:46.244Z,31.10
2018-03-01T23:11:15.782Z,31.10
2018-03-01T23:13:42.934Z,31.00
2018-03-01T23:16:12.647Z,31.00
2018-03-01T23:18:40.382Z,31.10
2018-03-01T23:21:08.436Z,31.10
2018-03-01T23:23:37.484Z,30.90
2018-03-01T23:26:07.297Z,31.00
2018-03-01T23:28:35.642Z,31.60
2018-03-01T23:31:04.245Z,31.60
2018-03-01T23:33:32.780Z,31.60
2018-03-01T23:36:00.689Z,31.40
2018-03-01T23:38:29.782Z,31.40
2018-03-01T23:40:57.408Z,31.60
2018-03-01T23:43:25.822Z,31.60
2018-03-01T23:45:53.330Z,31.50
2018-03-01T23:48:24.321Z,31.60
2018-03-01T23:50:52.135Z,31.90
2018-03-01T23:53:21.328Z,31.80
2018-03-01T23:55:50.790Z,31.80
2018-03-01T23:58:23.268Z,31.90
